createdAt,value
2018-12-16T00:01:04.847Z,21.27
2018-12-16T00:03:35.210Z,21.17
2018-12-16T00:06:06.144Z,20.60
2018-12-16T00:08:37.261Z,19.80
2018-12-16T00:11:08.377Z,22.32
2018-12-16T00:13:39.302Z,21.15
2018-12-16T00:16:08.195Z,21.70
2018-12-16T00:18:39.466Z,17.23
2018-12-16T00:21:10.389Z,18.25
2018-12-16T00:23:39.445Z,20.08
2018-12-16T00:26:10.403Z,18.77
2018-12-16T00:28:41.673Z,19.15
2018-12-16T00:31:10.491Z,17.80
2018-12-16T00:33:41.491Z,19.65
2018-12-16T00:36:12.696Z,19.40
2018-12-16T00:38:42.015Z,18.67
2018-12-16T00:41:13.142Z,18.15
2018-12-16T00:43:47.162Z,20.70
2018-12-16T00:46:15.551Z,19.77
2018-12-16T00:48:46.829Z,20.00
2018-12-16T00:51:17.929Z,17.20
2018-12-16T00:53:48.467Z,17.48
2018-12-16T00:56:19.271Z,21.55
2018-12-16T00:58:50.457Z,19.95
2018-12-16T01:01:21.063Z,19.80
2018-12-16T01:03:51.830Z,18.48
2018-12-16T01:06:20.726Z,20.72
2018-12-16T01:08:49.832Z,21.12
2018-12-16T01:11:20.936Z,19.98
2018-12-16T01:13:55.013Z,20.80
2018-12-16T01:16:29.052Z,20.17
2018-12-16T01:18:58.240Z,21.40
2018-12-16T01:21:29.446Z,19.70
2018-12-16T01:23:58.423Z,17.85
2018-12-16T01:26:27.608Z,22.32
2018-12-16T01:28:58.552Z,20.50
2018-12-16T01:31:29.581Z,21.55
2018-12-16T01:34:03.432Z,21.27
2018-12-16T01:36:33.932Z,18.40
2018-12-16T01:39:05.166Z,18.77
2018-12-16T01:41:35.563Z,18.82
2018-12-16T01:44:06.857Z,19.30
2018-12-16T01:46:35.839Z,23.38
2018-12-16T01:49:06.984Z,20.57
2018-12-16T01:51:36.061Z,20.75
2018-12-16T01:54:05.343Z,20.80
2018-12-16T01:56:39.317Z,20.50
2018-12-16T01:59:24.721Z,19.00
2018-12-16T02:01:56.454Z,17.45
2018-12-16T02:04:27.686Z,15.58
2018-12-16T02:06:58.858Z,19.57
2018-12-16T02:09:29.979Z,15.93
2018-12-16T02:12:03.823Z,16.48
2018-12-16T02:14:37.817Z,16.77
2018-12-16T02:17:09.678Z,19.65
2018-12-16T02:19:43.877Z,18.60
2018-12-16T02:22:15.107Z,17.73
2018-12-16T02:24:49.141Z,19.35
2018-12-16T02:27:23.042Z,15.53
2018-12-16T02:29:56.233Z,18.87
2018-12-16T02:32:25.584Z,20.10
2018-12-16T02:35:03.545Z,19.92
2018-12-16T02:37:32.440Z,17.00
2018-12-16T02:40:03.252Z,19.67
2018-12-16T02:42:34.034Z,18.50
2018-12-16T02:45:05.193Z,18.90
2018-12-16T02:47:36.298Z,16.97
2018-12-16T02:50:07.342Z,17.50
2018-12-16T02:52:38.395Z,19.35
2018-12-16T02:55:09.243Z,21.62
2018-12-16T02:57:38.384Z,16.12
2018-12-16T03:00:09.599Z,20.17
2018-12-16T03:02:41.042Z,17.20
2018-12-16T03:05:11.704Z,19.77
2018-12-16T03:07:42.679Z,17.67
2018-12-16T03:10:13.645Z,18.45
2018-12-16T03:12:47.467Z,20.45
2018-12-16T03:15:18.654Z,19.25
2018-12-16T03:17:49.952Z,14.18
2018-12-16T03:20:21.086Z,16.90
2018-12-16T03:22:52.251Z,22.30
2018-12-16T03:25:25.696Z,19.17
2018-12-16T03:27:54.816Z,16.55
2018-12-16T03:30:25.817Z,16.20
2018-12-16T03:32:59.452Z,18.32
2018-12-16T03:35:28.839Z,17.92
2018-12-16T03:38:02.024Z,20.32
2018-12-16T03:40:33.517Z,19.73
2018-12-16T03:43:07.587Z,21.15
2018-12-16T03:45:49.183Z,21.65
2018-12-16T03:48:20.096Z,21.37
2018-12-16T03:50:49.563Z,24.25
2018-12-16T03:53:20.668Z,20.55
2018-12-16T03:55:51.739Z,21.30
2018-12-16T03:58:22.804Z,24.35
2018-12-16T04:00:53.962Z,24.72
2018-12-16T04:03:24.964Z,21.85
2018-12-16T04:05:55.951Z,22.52
2018-12-16T04:08:25.019Z,22.77
2018-12-16T04:10:54.258Z,21.48
2018-12-16T04:13:25.506Z,24.60
2018-12-16T04:15:56.546Z,23.67
2018-12-16T04:18:27.415Z,17.25
2018-12-16T04:21:01.063Z,22.30
2018-12-16T04:23:31.526Z,20.10
2018-12-16T04:26:02.571Z,19.67
2018-12-16T04:28:33.787Z,25.05
2018-12-16T04:31:02.654Z,23.00
2018-12-16T04:33:33.950Z,22.45
2018-12-16T04:36:05.040Z,19.98
2018-12-16T04:38:36.207Z,20.55
2018-12-16T04:41:09.878Z,22.45
2018-12-16T04:43:40.792Z,24.18
2018-12-16T04:46:11.772Z,24.55
2018-12-16T04:48:42.769Z,20.20
2018-12-16T04:51:14.082Z,23.85
2018-12-16T04:53:45.100Z,23.45
2018-12-16T04:56:20.886Z,24.10
2018-12-16T04:58:52.154Z,21.80
2018-12-16T05:01:21.394Z,24.92
2018-12-16T05:03:52.350Z,23.85
2018-12-16T05:06:30.313Z,23.12
2018-12-16T05:09:01.872Z,25.60
2018-12-16T05:11:32.582Z,27.50
2018-12-16T05:14:10.291Z,24.67
2018-12-16T05:16:41.562Z,22.30
2018-12-16T05:19:12.774Z,24.77
2018-12-16T05:21:44.070Z,22.90
2018-12-16T05:24:15.014Z,24.90
2018-12-16T05:26:45.905Z,25.82
2018-12-16T05:29:17.152Z,26.07
2018-12-16T05:31:48.220Z,24.47
2018-12-16T05:34:17.299Z,26.33
2018-12-16T05:36:54.995Z,25.23
2018-12-16T05:39:25.325Z,27.45
2018-12-16T05:41:56.655Z,25.55
2018-12-16T05:44:29.880Z,27.10
2018-12-16T05:47:03.049Z,32.38
2018-12-16T05:49:32.354Z,21.65
2018-12-16T05:52:03.545Z,24.32
2018-12-16T05:54:36.721Z,21.97
2018-12-16T05:57:05.806Z,24.02
2018-12-16T05:59:36.425Z,31.48
2018-12-16T06:02:10.482Z,24.40
2018-12-16T06:04:39.035Z,32.58
2018-12-16T06:07:10.216Z,20.40
2018-12-16T06:09:40.969Z,30.37
2018-12-16T06:12:14.576Z,28.87
2018-12-16T06:14:45.046Z,28.87
2018-12-16T06:17:16.078Z,25.50
2018-12-16T06:19:47.041Z,28.83
2018-12-16T06:22:18.055Z,23.25
2018-12-16T06:24:47.243Z,26.37
2018-12-16T06:27:18.785Z,22.58
2018-12-16T06:29:50.306Z,26.85
2018-12-16T06:32:21.396Z,23.45
2018-12-16T06:34:52.240Z,26.57
2018-12-16T06:37:23.425Z,27.10
2018-12-16T06:39:54.467Z,25.30
2018-12-16T06:42:23.488Z,27.52
2018-12-16T06:44:54.427Z,25.72
2018-12-16T06:47:25.736Z,26.97
2018-12-16T06:49:57.082Z,21.60
2018-12-16T06:52:30.586Z,20.70
2018-12-16T06:55:17.555Z,22.48
2018-12-16T06:57:48.726Z,23.77
2018-12-16T07:00:19.648Z,26.90
2018-12-16T07:02:52.674Z,20.40
2018-12-16T07:05:23.501Z,26.57
2018-12-16T07:07:54.386Z,22.48
2018-12-16T07:10:25.512Z,22.17
2018-12-16T07:12:56.781Z,23.57
2018-12-16T07:15:27.519Z,25.37
2018-12-16T07:18:02.509Z,26.33
2018-12-16T07:20:35.630Z,25.92
2018-12-16T07:23:06.493Z,27.25
2018-12-16T07:25:37.622Z,21.80
2018-12-16T07:28:08.430Z,24.65
2018-12-16T07:30:39.500Z,30.25
2018-12-16T07:33:10.420Z,26.12
2018-12-16T07:35:51.016Z,28.70
2018-12-16T07:38:22.418Z,27.37
2018-12-16T07:40:53.473Z,25.77
2018-12-16T07:43:22.134Z,24.25
2018-12-16T07:45:55.332Z,24.02
2018-12-16T07:48:26.744Z,23.02
2018-12-16T07:50:57.175Z,21.65
2018-12-16T07:53:26.150Z,26.35
2018-12-16T07:55:57.262Z,26.45
2018-12-16T07:58:31.276Z,26.02
2018-12-16T08:01:02.451Z,24.37
2018-12-16T08:03:33.823Z,29.48
2018-12-16T08:06:04.771Z,29.95
2018-12-16T08:08:35.990Z,25.88
2018-12-16T08:11:05.005Z,28.98
2018-12-16T08:13:36.089Z,25.32
2018-12-16T08:16:07.311Z,26.12
2018-12-16T08:18:38.269Z,25.12
2018-12-16T08:21:09.234Z,30.23
2018-12-16T08:23:39.604Z,31.62
2018-12-16T08:26:10.707Z,27.60
2018-12-16T08:28:44.491Z,28.15
2018-12-16T08:31:14.881Z,25.23
2018-12-16T08:33:43.932Z,28.70
2018-12-16T08:36:14.791Z,29.98
2018-12-16T08:38:45.553Z,27.20
2018-12-16T08:41:14.639Z,28.87
2018-12-16T08:43:43.863Z,23.40
2018-12-16T08:46:12.862Z,27.00
2018-12-16T08:48:44.135Z,29.02
2018-12-16T08:51:15.293Z,28.27
2018-12-16T08:53:46.109Z,27.98
2018-12-16T08:58:49.327Z,27.62
2018-12-16T09:01:20.493Z,28.23
2018-12-16T09:03:49.815Z,32.73
2018-12-16T09:06:20.707Z,30.00
2018-12-16T09:08:52.106Z,27.05
2018-12-16T09:11:32.085Z,27.02
2018-12-16T09:14:02.768Z,27.70
2018-12-16T09:16:33.830Z,29.00
2018-12-16T09:19:08.099Z,31.70
2018-12-16T09:21:39.125Z,30.32
2018-12-16T09:24:10.185Z,36.35
2018-12-16T09:26:41.036Z,54.15
2018-12-16T09:29:14.816Z,56.90
2018-12-16T09:31:43.717Z,43.48
2018-12-16T09:34:14.779Z,30.75
2018-12-16T09:36:45.869Z,27.42
2018-12-16T09:39:16.874Z,40.52
2018-12-16T09:41:47.629Z,52.70
2018-12-16T09:44:18.606Z,42.00
2018-12-16T09:46:49.900Z,26.12
2018-12-16T09:49:21.197Z,29.95
2018-12-16T09:51:56.150Z,37.38
2018-12-16T09:54:27.416Z,25.48
2018-12-16T09:56:58.237Z,27.58
2018-12-16T09:59:27.532Z,28.73
2018-12-16T10:01:58.417Z,29.57
2018-12-16T10:04:29.614Z,26.45
2018-12-16T10:07:00.592Z,29.40
2018-12-16T10:09:31.532Z,29.90
2018-12-16T10:12:05.178Z,37.83
2018-12-16T10:14:39.085Z,29.42
2018-12-16T10:17:07.673Z,34.38
2018-12-16T10:19:38.056Z,33.90
2018-12-16T10:22:09.594Z,33.45
2018-12-16T10:24:40.334Z,31.30
2018-12-16T10:27:14.098Z,28.00
2018-12-16T10:29:48.212Z,28.65
2018-12-16T10:32:18.886Z,27.67
2018-12-16T10:34:47.979Z,33.92
2018-12-16T10:37:17.256Z,27.65
2018-12-16T10:39:48.442Z,35.25
2018-12-16T10:42:23.058Z,30.10
2018-12-16T10:44:54.507Z,32.00
2018-12-16T10:47:28.636Z,31.50
2018-12-16T10:49:57.010Z,36.53
2018-12-16T10:52:28.046Z,36.85
2018-12-16T10:54:58.529Z,33.25
2018-12-16T10:57:27.333Z,33.67
2018-12-16T10:59:56.345Z,34.73
2018-12-16T11:02:30.085Z,35.25
2018-12-16T11:05:01.171Z,33.75
2018-12-16T11:07:34.877Z,37.83
2018-12-16T11:10:05.714Z,33.65
2018-12-16T11:12:36.775Z,33.28
2018-12-16T11:15:08.502Z,38.08
2018-12-16T11:17:39.278Z,32.58
2018-12-16T11:20:10.337Z,32.23
2018-12-16T11:22:41.377Z,32.15
2018-12-16T11:25:12.712Z,39.38
2018-12-16T11:27:43.552Z,32.63
2018-12-16T11:30:14.830Z,33.20
2018-12-16T11:32:44.036Z,33.75
2018-12-16T11:35:25.421Z,33.18
2018-12-16T11:37:54.183Z,29.90
2018-12-16T11:40:27.777Z,38.98
2018-12-16T11:42:57.163Z,35.58
2018-12-16T11:45:27.810Z,34.55
2018-12-16T11:47:57.129Z,33.85
2018-12-16T11:50:26.031Z,35.80
2018-12-16T11:53:01.685Z,34.23
2018-12-16T11:55:33.069Z,33.80
2018-12-16T12:00:44.865Z,34.85
2018-12-16T12:03:15.514Z,38.20
2018-12-16T12:05:46.489Z,41.42
2018-12-16T12:08:20.368Z,33.10
2018-12-16T12:10:56.365Z,41.28
2018-12-16T13:30:32.582Z,40.90
2018-12-16T13:33:03.080Z,38.78
2018-12-16T13:35:32.252Z,42.45
2018-12-16T13:38:01.301Z,45.98
2018-12-16T13:40:32.349Z,37.95
2018-12-16T13:43:01.391Z,43.92
2018-12-16T13:45:32.312Z,31.80
2018-12-16T13:48:01.084Z,40.40
2018-12-16T13:50:36.637Z,32.33
2018-12-16T13:53:11.729Z,35.00
2018-12-16T13:55:42.937Z,38.35
2018-12-16T13:58:16.834Z,36.55
2018-12-16T14:00:45.780Z,46.60
2018-12-16T14:03:14.625Z,59.27
2018-12-16T14:05:48.612Z,41.45
2018-12-16T14:08:19.599Z,37.75
2018-12-16T14:10:54.304Z,36.58
2018-12-16T14:13:25.628Z,42.75
2018-12-16T14:15:56.679Z,36.80
2018-12-16T14:18:28.040Z,40.25
2018-12-16T14:20:56.978Z,33.92
2018-12-16T14:23:27.797Z,33.23
2018-12-16T14:25:58.875Z,31.97
2018-12-16T14:28:27.816Z,34.15
2018-12-16T14:30:58.365Z,29.05
2018-12-16T14:33:27.472Z,31.65
2018-12-16T14:35:56.521Z,34.25
2018-12-16T14:38:30.561Z,31.65
2018-12-16T14:40:59.603Z,33.90
2018-12-16T14:43:30.763Z,30.57
2018-12-16T14:45:59.560Z,31.77
2018-12-16T14:48:28.566Z,31.15
2018-12-16T14:50:59.934Z,30.12
2018-12-16T14:53:40.340Z,31.60
2018-12-16T14:56:13.549Z,29.72
2018-12-16T14:58:47.467Z,30.25
2018-12-16T15:01:17.829Z,30.32
2018-12-16T15:03:49.022Z,34.60
2018-12-16T15:06:20.321Z,28.00
2018-12-16T15:08:49.245Z,31.68
2018-12-16T15:11:24.235Z,32.00
2018-12-16T15:13:53.426Z,33.92
2018-12-16T15:16:26.650Z,34.50
2018-12-16T15:18:57.132Z,27.27
2018-12-16T15:21:31.850Z,30.75
2018-12-16T15:24:03.038Z,29.40
2018-12-16T15:26:34.197Z,30.82
2018-12-16T15:29:05.350Z,32.42
2018-12-16T15:34:08.036Z,25.02
2018-12-16T15:36:39.193Z,27.32
2018-12-16T15:39:10.445Z,30.55
2018-12-16T15:41:41.685Z,25.65
2018-12-16T15:44:10.744Z,28.17
2018-12-16T15:46:48.323Z,31.25
2018-12-16T15:49:28.498Z,27.65
2018-12-16T15:52:01.683Z,28.92
2018-12-16T15:54:32.925Z,29.12
2018-12-16T15:57:07.581Z,29.63
2018-12-16T15:59:41.632Z,31.25
2018-12-16T16:02:10.832Z,33.88
2018-12-16T16:04:41.839Z,32.98
2018-12-16T16:07:12.661Z,31.27
2018-12-16T16:09:46.371Z,32.42
2018-12-16T16:12:17.684Z,30.43
2018-12-16T16:14:48.652Z,34.75
2018-12-16T16:17:19.984Z,31.30
2018-12-16T16:19:50.909Z,37.10
2018-12-16T16:22:21.337Z,31.07
2018-12-16T16:24:52.485Z,36.05
2018-12-16T16:27:22.862Z,32.70
2018-12-16T16:29:56.007Z,35.80
2018-12-16T16:32:29.764Z,45.67
2018-12-16T16:35:01.943Z,36.88
2018-12-16T16:37:32.603Z,37.83
2018-12-16T16:40:05.130Z,33.98
2018-12-16T16:42:36.108Z,33.75
2018-12-16T16:45:09.844Z,33.18
2018-12-16T16:47:39.096Z,28.77
2018-12-16T16:50:10.226Z,35.58
2018-12-16T16:52:41.303Z,32.45
2018-12-16T16:55:12.019Z,31.30
2018-12-16T16:57:43.260Z,28.87
2018-12-16T17:00:14.275Z,27.62
2018-12-16T17:02:47.942Z,30.68
2018-12-16T17:08:17.725Z,37.70
2018-12-16T17:10:51.937Z,35.40
2018-12-16T17:13:22.989Z,27.82
2018-12-16T17:15:53.929Z,31.30
2018-12-16T17:18:27.848Z,26.73
2018-12-16T17:23:55.613Z,33.42
2018-12-16T17:26:30.222Z,29.77
2018-12-16T17:29:00.817Z,33.28
2018-12-16T17:31:32.059Z,35.90
2018-12-16T17:34:09.469Z,36.90
2018-12-16T17:36:38.835Z,33.70
2018-12-16T17:39:09.619Z,27.85
2018-12-16T17:41:40.741Z,34.13
2018-12-16T17:44:11.546Z,29.40
2018-12-16T17:49:38.568Z,33.00
2018-12-16T17:52:07.729Z,27.87
2018-12-16T17:54:38.926Z,27.42
2018-12-16T17:57:10.001Z,31.00
2018-12-16T17:59:43.943Z,27.00
2018-12-16T18:02:14.753Z,25.70
2018-12-16T18:04:45.941Z,31.52
2018-12-16T18:07:14.850Z,24.23
2018-12-16T18:09:42.282Z,26.00
2018-12-16T18:12:09.896Z,31.82
2018-12-16T18:14:37.974Z,31.62
2018-12-16T18:17:06.915Z,34.75
2018-12-16T18:19:34.383Z,32.50
2018-12-16T18:22:01.916Z,35.08
2018-12-16T18:24:29.602Z,26.77
2018-12-16T18:26:57.107Z,29.37
2018-12-16T18:29:24.546Z,29.32
2018-12-16T18:31:52.023Z,32.33
2018-12-16T18:34:19.511Z,32.42
2018-12-16T18:36:47.006Z,33.38
2018-12-16T18:39:14.522Z,32.88
2018-12-16T18:41:42.179Z,25.23
2018-12-16T18:44:09.826Z,35.75
2018-12-16T18:46:37.321Z,30.70
2018-12-16T18:49:04.875Z,29.48
2018-12-16T18:51:32.406Z,23.70
2018-12-16T18:54:00.029Z,28.47
2018-12-16T18:56:27.557Z,29.15
2018-12-16T18:58:55.063Z,29.75
2018-12-16T19:01:22.607Z,22.10
2018-12-16T19:03:50.415Z,33.28
2018-12-16T19:06:17.939Z,22.37
2018-12-16T19:08:45.568Z,31.10
2018-12-16T19:11:13.151Z,29.23
2018-12-16T19:13:40.817Z,28.32
2018-12-16T19:16:08.292Z,27.32
2018-12-16T19:18:36.042Z,31.12
2018-12-16T19:21:04.066Z,28.30
2018-12-16T19:23:31.583Z,26.82
2018-12-16T19:25:59.071Z,27.75
2018-12-16T19:28:26.683Z,21.50
2018-12-16T19:30:54.356Z,28.57
2018-12-16T19:33:21.846Z,29.00
2018-12-16T19:35:49.494Z,24.12
2018-12-16T19:38:16.956Z,28.77
2018-12-16T19:40:44.474Z,26.82
2018-12-16T19:43:11.984Z,30.05
2018-12-16T19:45:42.649Z,20.32
2018-12-16T19:48:13.413Z,28.32
2018-12-16T19:50:44.447Z,28.85
2018-12-16T19:53:15.354Z,25.45
2018-12-16T19:55:44.570Z,34.27
2018-12-16T19:58:15.669Z,23.45
2018-12-16T20:00:46.796Z,30.77
2018-12-16T20:03:15.868Z,30.27
2018-12-16T20:05:52.533Z,28.67
2018-12-16T20:08:29.823Z,31.55
2018-12-16T20:10:58.266Z,30.62
2018-12-16T20:13:29.283Z,27.52
2018-12-16T20:16:04.951Z,101.87
2018-12-16T20:18:36.127Z,28.42
2018-12-16T20:21:06.890Z,34.08
2018-12-16T20:23:37.918Z,32.63
2018-12-16T20:26:09.096Z,26.85
2018-12-16T20:28:40.188Z,32.17
2018-12-16T20:31:11.441Z,28.25
2018-12-16T20:33:42.823Z,37.23
2018-12-16T20:36:14.167Z,39.42
2018-12-16T20:41:17.375Z,30.43
2018-12-16T20:43:48.564Z,27.25
2018-12-16T20:46:19.482Z,27.52
2018-12-16T20:48:48.502Z,32.45
2018-12-16T20:51:19.629Z,32.93
2018-12-16T20:53:48.869Z,27.98
2018-12-16T20:56:24.531Z,31.35
2018-12-16T20:58:57.705Z,31.05
2018-12-16T21:01:28.108Z,33.00
2018-12-16T21:03:59.336Z,29.25
2018-12-16T21:06:28.270Z,41.23
2018-12-16T21:08:59.275Z,32.25
2018-12-16T21:14:38.585Z,29.92
2018-12-16T21:17:13.514Z,30.17
2018-12-16T21:19:44.108Z,35.50
2018-12-16T21:22:15.087Z,31.80
2018-12-16T21:24:52.826Z,25.52
2018-12-16T21:30:26.010Z,25.27
2018-12-16T21:41:58.957Z,24.15
2018-12-16T21:44:32.796Z,27.15
2018-12-16T21:47:06.646Z,25.00
2018-12-16T21:49:36.003Z,26.75
2018-12-16T21:52:04.966Z,29.40
2018-12-16T21:54:36.063Z,30.25
2018-12-16T21:57:07.100Z,29.30
2018-12-16T22:02:42.039Z,30.77
2018-12-16T22:08:15.702Z,32.85
2018-12-16T22:10:46.659Z,26.15
2018-12-16T22:16:23.511Z,21.90
2018-12-16T22:18:56.801Z,26.12
2018-12-16T22:21:27.858Z,23.50
2018-12-16T22:23:55.356Z,24.02
2018-12-16T22:26:22.792Z,22.80
2018-12-16T22:28:50.230Z,24.90
2018-12-16T22:31:18.624Z,30.02
2018-12-16T22:33:46.061Z,24.12
2018-12-16T22:36:13.503Z,21.82
2018-12-16T22:38:40.951Z,27.02
2018-12-16T22:41:08.410Z,26.10
2018-12-16T22:43:35.886Z,27.25
2018-12-16T22:46:03.430Z,22.17
2018-12-16T22:48:30.875Z,25.05
2018-12-16T22:50:58.391Z,18.87
2018-12-16T22:53:25.831Z,24.90
2018-12-16T22:55:53.280Z,20.08
2018-12-16T22:58:20.716Z,23.12
2018-12-16T23:00:54.034Z,22.22
2018-12-16T23:03:21.466Z,25.15
2018-12-16T23:05:49.004Z,22.80
2018-12-16T23:08:16.440Z,23.67
2018-12-16T23:10:43.879Z,21.62
2018-12-16T23:13:11.314Z,20.75
2018-12-16T23:15:38.797Z,20.55
2018-12-16T23:18:06.270Z,24.23
2018-12-16T23:20:33.789Z,26.17
2018-12-16T23:23:01.247Z,23.45
2018-12-16T23:25:28.688Z,18.92
2018-12-16T23:27:56.119Z,23.47
2018-12-16T23:30:23.555Z,20.60
2018-12-16T23:32:56.987Z,22.87
2018-12-16T23:35:24.448Z,22.27
2018-12-16T23:37:51.871Z,21.02
2018-12-16T23:40:19.307Z,15.55
2018-12-16T23:42:46.747Z,17.30
2018-12-16T23:45:14.221Z,16.05
2018-12-16T23:47:41.699Z,17.25
2018-12-16T23:50:09.222Z,22.02
2018-12-16T23:52:36.692Z,19.65
2018-12-16T23:55:10.272Z,17.82
2018-12-16T23:57:37.713Z,20.27
